sensor_id;sensor_type;location;lat;lon;timestamp;P1;durP1;ratioP1;P2;durP2;ratioP2
13801;SDS011;6972;51.518;6.918;2023-03-23T00:00:16;8.18;;;2.35;;
13801;SDS011;6972;51.518;6.918;2023-03-23T00:02:42;4.63;;;2.40;;
13801;SDS011;6972;51.518;6.918;2023-03-23T00:05:10;7.10;;;2.50;;
13801;SDS011;6972;51.518;6.918;2023-03-23T00:07:36;9.75;;;2.42;;
13801;SDS011;6972;51.518;6.918;2023-03-23T00:10:06;7.53;;;2.65;;
13801;SDS011;6972;51.518;6.918;2023-03-23T00:12:33;5.43;;;2.58;;
13801;SDS011;6972;51.518;6.918;2023-03-23T00:15:03;4.32;;;2.33;;
13801;SDS011;6972;51.518;6.918;2023-03-23T00:17:30;4.97;;;2.40;;
13801;SDS011;6972;51.518;6.918;2023-03-23T00:19:58;6.45;;;2.70;;
13801;SDS011;6972;51.518;6.918;2023-03-23T00:22:26;11.30;;;2.65;;
13801;SDS011;6972;51.518;6.918;2023-03-23T00:24:53;4.53;;;2.40;;
13801;SDS011;6972;51.518;6.918;2023-03-23T00:27:19;4.82;;;2.50;;
13801;SDS011;6972;51.518;6.918;2023-03-23T00:29:49;5.50;;;2.55;;
13801;SDS011;6972;51.518;6.918;2023-03-23T00:32:19;8.73;;;2.40;;
13801;SDS011;6972;51.518;6.918;2023-03-23T00:34:46;5.53;;;2.17;;
13801;SDS011;6972;51.518;6.918;2023-03-23T00:37:13;4.18;;;2.22;;
13801;SDS011;6972;51.518;6.918;2023-03-23T00:39:43;7.13;;;2.70;;
13801;SDS011;6972;51.518;6.918;2023-03-23T00:42:16;5.70;;;2.30;;
13801;SDS011;6972;51.518;6.918;2023-03-23T00:44:42;4.32;;;2.35;;
13801;SDS011;6972;51.518;6.918;2023-03-23T00:47:09;3.88;;;2.40;;
13801;SDS011;6972;51.518;6.918;2023-03-23T00:49:37;3.47;;;2.42;;
13801;SDS011;6972;51.518;6.918;2023-03-23T00:52:05;3.63;;;2.10;;
13801;SDS011;6972;51.518;6.918;2023-03-23T00:54:31;4.15;;;2.25;;
13801;SDS011;6972;51.518;6.918;2023-03-23T00:56:59;5.32;;;2.35;;
13801;SDS011;6972;51.518;6.918;2023-03-23T00:59:25;3.22;;;2.15;;
13801;SDS011;6972;51.518;6.918;2023-03-23T01:01:51;6.40;;;2.40;;
13801;SDS011;6972;51.518;6.918;2023-03-23T01:04:17;3.45;;;1.95;;
13801;SDS011;6972;51.518;6.918;2023-03-23T01:06:44;5.22;;;2.17;;
13801;SDS011;6972;51.518;6.918;2023-03-23T01:09:15;7.85;;;2.40;;
13801;SDS011;6972;51.518;6.918;2023-03-23T01:11:45;2.30;;;1.90;;
13801;SDS011;6972;51.518;6.918;2023-03-23T01:14:12;4.10;;;2.10;;
13801;SDS011;6972;51.518;6.918;2023-03-23T01:16:39;5.43;;;2.65;;
13801;SDS011;6972;51.518;6.918;2023-03-23T01:19:05;4.07;;;2.03;;
13801;SDS011;6972;51.518;6.918;2023-03-23T01:38:17;6.05;;;2.60;;
13801;SDS011;6972;51.518;6.918;2023-03-23T01:40:43;7.13;;;2.40;;
13801;SDS011;6972;51.518;6.918;2023-03-23T01:43:13;4.28;;;2.20;;
13801;SDS011;6972;51.518;6.918;2023-03-23T01:45:40;4.20;;;2.15;;
13801;SDS011;6972;51.518;6.918;2023-03-23T01:48:25;3.38;;;2.03;;
13801;SDS011;6972;51.518;6.918;2023-03-23T01:51:04;3.72;;;2.05;;
13801;SDS011;6972;51.518;6.918;2023-03-23T01:53:38;4.40;;;2.22;;
13801;SDS011;6972;51.518;6.918;2023-03-23T01:56:07;4.63;;;2.10;;
13801;SDS011;6972;51.518;6.918;2023-03-23T01:58:38;2.72;;;1.88;;
13801;SDS011;6972;51.518;6.918;2023-03-23T02:01:06;3.05;;;1.95;;
13801;SDS011;6972;51.518;6.918;2023-03-23T02:03:36;5.32;;;2.10;;
13801;SDS011;6972;51.518;6.918;2023-03-23T02:06:06;5.28;;;2.10;;
13801;SDS011;6972;51.518;6.918;2023-03-23T02:08:32;2.75;;;1.80;;
13801;SDS011;6972;51.518;6.918;2023-03-23T02:10:58;4.50;;;2.42;;
13801;SDS011;6972;51.518;6.918;2023-03-23T02:13:25;3.83;;;2.03;;
13801;SDS011;6972;51.518;6.918;2023-03-23T02:16:09;4.05;;;2.08;;
13801;SDS011;6972;51.518;6.918;2023-03-23T02:18:40;3.13;;;1.90;;
13801;SDS011;6972;51.518;6.918;2023-03-23T02:24:15;2.35;;;1.75;;
13801;SDS011;6972;51.518;6.918;2023-03-23T02:41:51;4.43;;;2.10;;
13801;SDS011;6972;51.518;6.918;2023-03-23T02:44:26;3.90;;;2.17;;
13801;SDS011;6972;51.518;6.918;2023-03-23T02:46:55;3.92;;;2.10;;
13801;SDS011;6972;51.518;6.918;2023-03-23T02:49:22;6.18;;;2.05;;
13801;SDS011;6972;51.518;6.918;2023-03-23T02:51:50;2.80;;;2.00;;
13801;SDS011;6972;51.518;6.918;2023-03-23T02:54:18;3.75;;;2.22;;
13801;SDS011;6972;51.518;6.918;2023-03-23T02:56:47;3.90;;;2.08;;
13801;SDS011;6972;51.518;6.918;2023-03-23T02:59:15;4.65;;;2.40;;
13801;SDS011;6972;51.518;6.918;2023-03-23T03:04:17;6.93;;;2.90;;
13801;SDS011;6972;51.518;6.918;2023-03-23T03:06:58;5.15;;;2.10;;
13801;SDS011;6972;51.518;6.918;2023-03-23T03:09:33;3.60;;;2.47;;
13801;SDS011;6972;51.518;6.918;2023-03-23T03:12:20;4.97;;;2.13;;
13801;SDS011;6972;51.518;6.918;2023-03-23T03:14:56;3.10;;;2.42;;
13801;SDS011;6972;51.518;6.918;2023-03-23T03:17:33;2.83;;;2.10;;
13801;SDS011;6972;51.518;6.918;2023-03-23T03:20:04;6.07;;;2.60;;
13801;SDS011;6972;51.518;6.918;2023-03-23T03:22:35;3.92;;;2.10;;
13801;SDS011;6972;51.518;6.918;2023-03-23T03:25:04;5.35;;;1.98;;
13801;SDS011;6972;51.518;6.918;2023-03-23T03:27:35;4.28;;;2.22;;
13801;SDS011;6972;51.518;6.918;2023-03-23T03:30:02;6.03;;;2.28;;
13801;SDS011;6972;51.518;6.918;2023-03-23T03:32:34;3.58;;;1.95;;
13801;SDS011;6972;51.518;6.918;2023-03-23T03:35:04;4.53;;;1.92;;
13801;SDS011;6972;51.518;6.918;2023-03-23T03:37:37;2.85;;;1.95;;
13801;SDS011;6972;51.518;6.918;2023-03-23T03:40:08;6.30;;;2.30;;
13801;SDS011;6972;51.518;6.918;2023-03-23T03:42:40;5.20;;;2.08;;
13801;SDS011;6972;51.518;6.918;2023-03-23T03:45:07;4.75;;;1.83;;
13801;SDS011;6972;51.518;6.918;2023-03-23T03:47:34;3.88;;;2.30;;
13801;SDS011;6972;51.518;6.918;2023-03-23T03:50:00;4.50;;;2.15;;
13801;SDS011;6972;51.518;6.918;2023-03-23T03:52:26;3.47;;;1.88;;
13801;SDS011;6972;51.518;6.918;2023-03-23T03:54:52;5.40;;;2.10;;
13801;SDS011;6972;51.518;6.918;2023-03-23T03:57:18;3.38;;;1.90;;
13801;SDS011;6972;51.518;6.918;2023-03-23T03:59:44;2.35;;;1.95;;
13801;SDS011;6972;51.518;6.918;2023-03-23T04:02:10;2.17;;;1.65;;
13801;SDS011;6972;51.518;6.918;2023-03-23T04:04:40;3.45;;;1.80;;
13801;SDS011;6972;51.518;6.918;2023-03-23T04:07:06;2.72;;;1.92;;
13801;SDS011;6972;51.518;6.918;2023-03-23T04:09:35;2.53;;;2.05;;
13801;SDS011;6972;51.518;6.918;2023-03-23T04:12:02;4.38;;;1.88;;
13801;SDS011;6972;51.518;6.918;2023-03-23T04:14:28;6.00;;;1.85;;
13801;SDS011;6972;51.518;6.918;2023-03-23T04:16:54;3.30;;;1.83;;
13801;SDS011;6972;51.518;6.918;2023-03-23T04:19:22;4.15;;;1.77;;
13801;SDS011;6972;51.518;6.918;2023-03-23T04:21:47;2.20;;;1.70;;
13801;SDS011;6972;51.518;6.918;2023-03-23T04:24:14;3.83;;;2.15;;
13801;SDS011;6972;51.518;6.918;2023-03-23T04:26:40;4.57;;;2.05;;
13801;SDS011;6972;51.518;6.918;2023-03-23T04:29:08;2.70;;;1.63;;
13801;SDS011;6972;51.518;6.918;2023-03-23T04:31:34;2.92;;;1.92;;
13801;SDS011;6972;51.518;6.918;2023-03-23T04:34:02;3.17;;;2.00;;
13801;SDS011;6972;51.518;6.918;2023-03-23T04:36:29;4.65;;;1.73;;
13801;SDS011;6972;51.518;6.918;2023-03-23T04:38:55;3.70;;;2.10;;
13801;SDS011;6972;51.518;6.918;2023-03-23T04:41:21;4.00;;;2.00;;
13801;SDS011;6972;51.518;6.918;2023-03-23T04:43:49;3.08;;;1.80;;
13801;SDS011;6972;51.518;6.918;2023-03-23T04:46:18;3.05;;;1.95;;
13801;SDS011;6972;51.518;6.918;2023-03-23T04:48:46;4.28;;;2.03;;
13801;SDS011;6972;51.518;6.918;2023-03-23T04:51:12;2.25;;;1.80;;
13801;SDS011;6972;51.518;6.918;2023-03-23T04:53:41;3.55;;;1.70;;
13801;SDS011;6972;51.518;6.918;2023-03-23T04:56:07;2.83;;;1.77;;
13801;SDS011;6972;51.518;6.918;2023-03-23T04:58:32;2.53;;;1.77;;
13801;SDS011;6972;51.518;6.918;2023-03-23T05:00:59;3.15;;;1.65;;
13801;SDS011;6972;51.518;6.918;2023-03-23T05:03:25;2.70;;;1.90;;
13801;SDS011;6972;51.518;6.918;2023-03-23T05:05:52;3.97;;;1.75;;
13801;SDS011;6972;51.518;6.918;2023-03-23T05:08:21;3.92;;;2.05;;
13801;SDS011;6972;51.518;6.918;2023-03-23T05:10:56;4.05;;;2.10;;
13801;SDS011;6972;51.518;6.918;2023-03-23T05:13:23;3.55;;;2.15;;
13801;SDS011;6972;51.518;6.918;2023-03-23T05:15:49;3.05;;;1.77;;
13801;SDS011;6972;51.518;6.918;2023-03-23T05:18:15;3.00;;;1.92;;
13801;SDS011;6972;51.518;6.918;2023-03-23T05:20:41;5.25;;;2.00;;
13801;SDS011;6972;51.518;6.918;2023-03-23T05:23:07;3.72;;;2.08;;
13801;SDS011;6972;51.518;6.918;2023-03-23T05:25:34;4.00;;;1.92;;
13801;SDS011;6972;51.518;6.918;2023-03-23T05:28:05;3.80;;;1.80;;
13801;SDS011;6972;51.518;6.918;2023-03-23T05:30:33;5.63;;;2.28;;
13801;SDS011;6972;51.518;6.918;2023-03-23T05:32:59;5.75;;;2.15;;
13801;SDS011;6972;51.518;6.918;2023-03-23T05:35:25;2.90;;;2.05;;
13801;SDS011;6972;51.518;6.918;2023-03-23T05:37:52;3.47;;;2.20;;
13801;SDS011;6972;51.518;6.918;2023-03-23T05:40:19;2.35;;;2.00;;
13801;SDS011;6972;51.518;6.918;2023-03-23T05:42:45;3.92;;;1.98;;
13801;SDS011;6972;51.518;6.918;2023-03-23T05:45:17;4.13;;;1.88;;
13801;SDS011;6972;51.518;6.918;2023-03-23T05:47:43;4.53;;;2.25;;
13801;SDS011;6972;51.518;6.918;2023-03-23T05:50:10;2.55;;;2.00;;
13801;SDS011;6972;51.518;6.918;2023-03-23T05:52:38;3.20;;;2.30;;
13801;SDS011;6972;51.518;6.918;2023-03-23T05:55:05;6.65;;;2.40;;
13801;SDS011;6972;51.518;6.918;2023-03-23T05:57:32;4.78;;;1.90;;
13801;SDS011;6972;51.518;6.918;2023-03-23T05:59:58;3.13;;;2.20;;
13801;SDS011;6972;51.518;6.918;2023-03-23T06:02:25;6.47;;;2.20;;
13801;SDS011;6972;51.518;6.918;2023-03-23T06:04:53;4.38;;;2.10;;
13801;SDS011;6972;51.518;6.918;2023-03-23T06:07:23;5.32;;;2.30;;
13801;SDS011;6972;51.518;6.918;2023-03-23T06:09:58;3.75;;;2.10;;
13801;SDS011;6972;51.518;6.918;2023-03-23T06:15:31;2.88;;;1.92;;
13801;SDS011;6972;51.518;6.918;2023-03-23T06:17:59;7.88;;;2.30;;
13801;SDS011;6972;51.518;6.918;2023-03-23T06:20:27;2.83;;;2.17;;
13801;SDS011;6972;51.518;6.918;2023-03-23T06:22:53;3.60;;;2.30;;
13801;SDS011;6972;51.518;6.918;2023-03-23T06:25:19;3.53;;;2.15;;
13801;SDS011;6972;51.518;6.918;2023-03-23T06:31:12;4.82;;;2.20;;
13801;SDS011;6972;51.518;6.918;2023-03-23T06:33:44;5.50;;;2.40;;
13801;SDS011;6972;51.518;6.918;2023-03-23T06:36:12;4.80;;;2.85;;
13801;SDS011;6972;51.518;6.918;2023-03-23T06:38:38;6.85;;;2.35;;
13801;SDS011;6972;51.518;6.918;2023-03-23T06:41:04;6.13;;;2.67;;
13801;SDS011;6972;51.518;6.918;2023-03-23T06:43:30;4.30;;;2.20;;
13801;SDS011;6972;51.518;6.918;2023-03-23T06:45:59;6.38;;;2.20;;
13801;SDS011;6972;51.518;6.918;2023-03-23T06:48:25;7.30;;;2.45;;
13801;SDS011;6972;51.518;6.918;2023-03-23T06:50:52;3.08;;;2.03;;
13801;SDS011;6972;51.518;6.918;2023-03-23T06:53:18;4.50;;;2.28;;
13801;SDS011;6972;51.518;6.918;2023-03-23T06:55:45;4.80;;;2.10;;
13801;SDS011;6972;51.518;6.918;2023-03-23T06:58:12;5.75;;;2.30;;
13801;SDS011;6972;51.518;6.918;2023-03-23T07:00:38;4.07;;;1.92;;
13801;SDS011;6972;51.518;6.918;2023-03-23T07:03:05;5.03;;;2.15;;
13801;SDS011;6972;51.518;6.918;2023-03-23T07:05:32;7.65;;;2.40;;
13801;SDS011;6972;51.518;6.918;2023-03-23T07:08:00;6.18;;;2.30;;
13801;SDS011;6972;51.518;6.918;2023-03-23T07:10:30;6.35;;;2.40;;
13801;SDS011;6972;51.518;6.918;2023-03-23T07:12:57;3.80;;;2.15;;
13801;SDS011;6972;51.518;6.918;2023-03-23T07:15:24;6.97;;;2.38;;
13801;SDS011;6972;51.518;6.918;2023-03-23T07:17:50;4.55;;;2.50;;
13801;SDS011;6972;51.518;6.918;2023-03-23T07:20:34;6.15;;;2.30;;
13801;SDS011;6972;51.518;6.918;2023-03-23T07:23:00;4.43;;;2.22;;
13801;SDS011;6972;51.518;6.918;2023-03-23T07:25:27;5.15;;;2.35;;
13801;SDS011;6972;51.518;6.918;2023-03-23T07:28:05;5.68;;;2.40;;
13801;SDS011;6972;51.518;6.918;2023-03-23T07:30:31;4.70;;;2.10;;
13801;SDS011;6972;51.518;6.918;2023-03-23T07:32:57;3.45;;;1.95;;
13801;SDS011;6972;51.518;6.918;2023-03-23T07:35:23;6.47;;;2.20;;
13801;SDS011;6972;51.518;6.918;2023-03-23T07:37:50;5.13;;;2.15;;
13801;SDS011;6972;51.518;6.918;2023-03-23T07:54:04;6.25;;;2.08;;
13801;SDS011;6972;51.518;6.918;2023-03-23T07:59:54;5.43;;;1.95;;
13801;SDS011;6972;51.518;6.918;2023-03-23T08:09:25;4.93;;;1.85;;
13801;SDS011;6972;51.518;6.918;2023-03-23T08:15:22;4.20;;;2.10;;
13801;SDS011;6972;51.518;6.918;2023-03-23T08:21:11;4.20;;;2.08;;
13801;SDS011;6972;51.518;6.918;2023-03-23T08:27:00;6.75;;;2.00;;
13801;SDS011;6972;51.518;6.918;2023-03-23T08:32:48;9.88;;;1.98;;
13801;SDS011;6972;51.518;6.918;2023-03-23T08:38:39;9.00;;;2.05;;
13801;SDS011;6972;51.518;6.918;2023-03-23T08:47:54;7.72;;;2.30;;
13801;SDS011;6972;51.518;6.918;2023-03-23T08:53:44;7.63;;;2.28;;
13801;SDS011;6972;51.518;6.918;2023-03-23T08:56:17;6.18;;;2.20;;
13801;SDS011;6972;51.518;6.918;2023-03-23T08:58:44;6.13;;;2.17;;
13801;SDS011;6972;51.518;6.918;2023-03-23T09:01:23;8.98;;;2.15;;
13801;SDS011;6972;51.518;6.918;2023-03-23T09:14:13;5.43;;;2.05;;
13801;SDS011;6972;51.518;6.918;2023-03-23T09:29:55;8.98;;;2.35;;
13801;SDS011;6972;51.518;6.918;2023-03-23T09:32:32;10.38;;;2.20;;
13801;SDS011;6972;51.518;6.918;2023-03-23T10:02:59;9.88;;;2.67;;
13801;SDS011;6972;51.518;6.918;2023-03-23T10:05:34;9.98;;;2.80;;
13801;SDS011;6972;51.518;6.918;2023-03-23T10:08:14;6.43;;;2.47;;
13801;SDS011;6972;51.518;6.918;2023-03-23T10:29:30;10.50;;;2.33;;
13801;SDS011;6972;51.518;6.918;2023-03-23T10:37:56;3.20;;;1.50;;
13801;SDS011;6972;51.518;6.918;2023-03-23T10:50:55;4.60;;;1.40;;
13801;SDS011;6972;51.518;6.918;2023-03-23T10:53:28;8.15;;;2.40;;
13801;SDS011;6972;51.518;6.918;2023-03-23T10:56:04;4.68;;;2.00;;
13801;SDS011;6972;51.518;6.918;2023-03-23T10:58:42;35.03;;;10.00;;
13801;SDS011;6972;51.518;6.918;2023-03-23T11:01:10;38.67;;;12.18;;
13801;SDS011;6972;51.518;6.918;2023-03-23T11:03:39;17.77;;;6.10;;
13801;SDS011;6972;51.518;6.918;2023-03-23T11:06:27;19.13;;;4.72;;
13801;SDS011;6972;51.518;6.918;2023-03-23T11:09:02;10.05;;;2.28;;
13801;SDS011;6972;51.518;6.918;2023-03-23T11:11:38;9.70;;;3.80;;
13801;SDS011;6972;51.518;6.918;2023-03-23T11:14:15;21.85;;;5.70;;
13801;SDS011;6972;51.518;6.918;2023-03-23T11:16:53;5.75;;;2.00;;
13801;SDS011;6972;51.518;6.918;2023-03-23T11:19:31;11.85;;;3.42;;
13801;SDS011;6972;51.518;6.918;2023-03-23T11:25:29;6.60;;;1.80;;
13801;SDS011;6972;51.518;6.918;2023-03-23T11:27:55;2.97;;;1.75;;
13801;SDS011;6972;51.518;6.918;2023-03-23T11:30:23;4.60;;;1.98;;
13801;SDS011;6972;51.518;6.918;2023-03-23T11:33:05;4.18;;;1.65;;
13801;SDS011;6972;51.518;6.918;2023-03-23T11:35:31;4.18;;;1.58;;
13801;SDS011;6972;51.518;6.918;2023-03-23T11:38:01;4.55;;;2.03;;
13801;SDS011;6972;51.518;6.918;2023-03-23T11:40:42;4.47;;;2.35;;
13801;SDS011;6972;51.518;6.918;2023-03-23T11:43:14;3.72;;;1.85;;
13801;SDS011;6972;51.518;6.918;2023-03-23T11:56:51;17.83;;;4.35;;
13801;SDS011;6972;51.518;6.918;2023-03-23T12:05:59;9.90;;;3.00;;
13801;SDS011;6972;51.518;6.918;2023-03-23T12:44:22;6.85;;;3.08;;
13801;SDS011;6972;51.518;6.918;2023-03-23T12:49:37;6.32;;;3.28;;
13801;SDS011;6972;51.518;6.918;2023-03-23T12:54:50;7.25;;;2.63;;
13801;SDS011;6972;51.518;6.918;2023-03-23T12:57:35;5.97;;;2.55;;
13801;SDS011;6972;51.518;6.918;2023-03-23T13:11:34;4.90;;;3.15;;
13801;SDS011;6972;51.518;6.918;2023-03-23T13:25:37;5.70;;;2.80;;
13801;SDS011;6972;51.518;6.918;2023-03-23T13:28:26;5.55;;;2.80;;
13801;SDS011;6972;51.518;6.918;2023-03-23T13:31:13;4.57;;;2.35;;
13801;SDS011;6972;51.518;6.918;2023-03-23T13:37:01;6.32;;;2.55;;
13801;SDS011;6972;51.518;6.918;2023-03-23T13:39:49;6.72;;;2.63;;
13801;SDS011;6972;51.518;6.918;2023-03-23T13:42:25;11.43;;;2.70;;
13801;SDS011;6972;51.518;6.918;2023-03-23T13:45:05;5.47;;;2.50;;
13801;SDS011;6972;51.518;6.918;2023-03-23T13:48:26;5.15;;;2.35;;
13801;SDS011;6972;51.518;6.918;2023-03-23T13:50:59;6.15;;;2.30;;
13801;SDS011;6972;51.518;6.918;2023-03-23T13:56:05;6.88;;;2.30;;
13801;SDS011;6972;51.518;6.918;2023-03-23T13:59:06;4.85;;;2.30;;
13801;SDS011;6972;51.518;6.918;2023-03-23T14:01:41;6.07;;;2.33;;
13801;SDS011;6972;51.518;6.918;2023-03-23T14:04:17;6.90;;;2.78;;
13801;SDS011;6972;51.518;6.918;2023-03-23T14:06:52;4.90;;;2.60;;
13801;SDS011;6972;51.518;6.918;2023-03-23T14:11:49;5.68;;;2.78;;
13801;SDS011;6972;51.518;6.918;2023-03-23T14:14:27;7.65;;;2.60;;
13801;SDS011;6972;51.518;6.918;2023-03-23T14:19:39;6.13;;;2.83;;
13801;SDS011;6972;51.518;6.918;2023-03-23T14:22:23;5.28;;;2.80;;
13801;SDS011;6972;51.518;6.918;2023-03-23T14:25:17;6.20;;;2.80;;
13801;SDS011;6972;51.518;6.918;2023-03-23T14:27:45;5.93;;;3.10;;
13801;SDS011;6972;51.518;6.918;2023-03-23T14:30:19;8.23;;;3.65;;
13801;SDS011;6972;51.518;6.918;2023-03-23T14:32:54;6.25;;;3.35;;
13801;SDS011;6972;51.518;6.918;2023-03-23T14:35:32;7.90;;;2.83;;
13801;SDS011;6972;51.518;6.918;2023-03-23T14:38:00;6.50;;;2.67;;
13801;SDS011;6972;51.518;6.918;2023-03-23T14:40:30;7.97;;;2.60;;
13801;SDS011;6972;51.518;6.918;2023-03-23T14:42:56;5.00;;;2.25;;
13801;SDS011;6972;51.518;6.918;2023-03-23T14:45:24;6.75;;;2.83;;
13801;SDS011;6972;51.518;6.918;2023-03-23T14:47:52;5.65;;;2.28;;
13801;SDS011;6972;51.518;6.918;2023-03-23T14:50:28;3.28;;;2.03;;
13801;SDS011;6972;51.518;6.918;2023-03-23T14:55:50;4.68;;;2.20;;
13801;SDS011;6972;51.518;6.918;2023-03-23T14:58:22;5.88;;;2.30;;
13801;SDS011;6972;51.518;6.918;2023-03-23T15:03:24;4.68;;;2.25;;
13801;SDS011;6972;51.518;6.918;2023-03-23T15:05:53;5.20;;;2.00;;
13801;SDS011;6972;51.518;6.918;2023-03-23T15:08:32;5.70;;;2.20;;
13801;SDS011;6972;51.518;6.918;2023-03-23T15:14:00;5.47;;;2.20;;
13801;SDS011;6972;51.518;6.918;2023-03-23T15:16:53;5.68;;;2.33;;
13801;SDS011;6972;51.518;6.918;2023-03-23T15:19:26;6.13;;;2.28;;
13801;SDS011;6972;51.518;6.918;2023-03-23T15:22:15;4.88;;;2.13;;
13801;SDS011;6972;51.518;6.918;2023-03-23T15:24:50;4.95;;;2.30;;
13801;SDS011;6972;51.518;6.918;2023-03-23T15:27:29;5.82;;;2.33;;
13801;SDS011;6972;51.518;6.918;2023-03-23T15:30:27;4.00;;;1.80;;
13801;SDS011;6972;51.518;6.918;2023-03-23T15:33:00;4.15;;;2.20;;
13801;SDS011;6972;51.518;6.918;2023-03-23T15:35:47;6.40;;;2.10;;
13801;SDS011;6972;51.518;6.918;2023-03-23T15:38:29;7.70;;;2.00;;
13801;SDS011;6972;51.518;6.918;2023-03-23T15:40:58;7.57;;;1.90;;
13801;SDS011;6972;51.518;6.918;2023-03-23T15:46:34;7.30;;;1.98;;
13801;SDS011;6972;51.518;6.918;2023-03-23T15:51:40;4.30;;;2.03;;
13801;SDS011;6972;51.518;6.918;2023-03-23T15:54:14;6.32;;;2.10;;
13801;SDS011;6972;51.518;6.918;2023-03-23T15:56:41;6.55;;;1.88;;
13801;SDS011;6972;51.518;6.918;2023-03-23T16:02:01;8.80;;;2.20;;
13801;SDS011;6972;51.518;6.918;2023-03-23T16:04:27;7.20;;;2.45;;
13801;SDS011;6972;51.518;6.918;2023-03-23T16:06:54;6.63;;;2.45;;
13801;SDS011;6972;51.518;6.918;2023-03-23T16:09:26;4.00;;;1.80;;
13801;SDS011;6972;51.518;6.918;2023-03-23T16:12:02;5.40;;;2.25;;
13801;SDS011;6972;51.518;6.918;2023-03-23T16:14:28;5.22;;;2.40;;
13801;SDS011;6972;51.518;6.918;2023-03-23T16:16:54;6.18;;;2.28;;
13801;SDS011;6972;51.518;6.918;2023-03-23T16:19:20;5.38;;;1.70;;
13801;SDS011;6972;51.518;6.918;2023-03-23T16:21:53;6.95;;;2.22;;
13801;SDS011;6972;51.518;6.918;2023-03-23T16:24:18;5.75;;;2.00;;
13801;SDS011;6972;51.518;6.918;2023-03-23T16:26:44;7.07;;;2.08;;
13801;SDS011;6972;51.518;6.918;2023-03-23T16:29:12;6.22;;;2.25;;
13801;SDS011;6972;51.518;6.918;2023-03-23T16:31:39;5.63;;;2.75;;
13801;SDS011;6972;51.518;6.918;2023-03-23T16:34:13;9.18;;;2.38;;
13801;SDS011;6972;51.518;6.918;2023-03-23T16:36:38;11.70;;;2.72;;
13801;SDS011;6972;51.518;6.918;2023-03-23T16:39:05;6.10;;;1.92;;
13801;SDS011;6972;51.518;6.918;2023-03-23T16:41:31;8.57;;;2.63;;
13801;SDS011;6972;51.518;6.918;2023-03-23T16:43:57;4.30;;;1.88;;
13801;SDS011;6972;51.518;6.918;2023-03-23T16:46:25;6.68;;;2.20;;
13801;SDS011;6972;51.518;6.918;2023-03-23T16:48:52;6.15;;;2.13;;
13801;SDS011;6972;51.518;6.918;2023-03-23T16:51:20;6.72;;;2.40;;
13801;SDS011;6972;51.518;6.918;2023-03-23T16:53:46;7.38;;;2.33;;
13801;SDS011;6972;51.518;6.918;2023-03-23T16:56:14;3.47;;;2.00;;
13801;SDS011;6972;51.518;6.918;2023-03-23T16:58:40;8.13;;;2.60;;
13801;SDS011;6972;51.518;6.918;2023-03-23T17:01:18;6.95;;;2.88;;
13801;SDS011;6972;51.518;6.918;2023-03-23T17:03:44;4.95;;;2.25;;
13801;SDS011;6972;51.518;6.918;2023-03-23T17:06:10;8.50;;;2.53;;
13801;SDS011;6972;51.518;6.918;2023-03-23T17:08:36;9.25;;;2.47;;
13801;SDS011;6972;51.518;6.918;2023-03-23T17:11:02;10.38;;;2.40;;
13801;SDS011;6972;51.518;6.918;2023-03-23T17:13:29;8.65;;;2.30;;
13801;SDS011;6972;51.518;6.918;2023-03-23T17:15:55;5.18;;;2.13;;
13801;SDS011;6972;51.518;6.918;2023-03-23T17:18:22;6.05;;;2.30;;
13801;SDS011;6972;51.518;6.918;2023-03-23T17:20:49;5.75;;;2.38;;
13801;SDS011;6972;51.518;6.918;2023-03-23T17:23:16;9.07;;;2.53;;
13801;SDS011;6972;51.518;6.918;2023-03-23T17:25:43;8.27;;;2.65;;
13801;SDS011;6972;51.518;6.918;2023-03-23T17:28:10;7.75;;;2.65;;
13801;SDS011;6972;51.518;6.918;2023-03-23T17:30:38;8.40;;;2.47;;
13801;SDS011;6972;51.518;6.918;2023-03-23T17:33:05;5.38;;;2.53;;
13801;SDS011;6972;51.518;6.918;2023-03-23T17:35:31;5.95;;;2.45;;
13801;SDS011;6972;51.518;6.918;2023-03-23T17:37:58;12.55;;;2.80;;
13801;SDS011;6972;51.518;6.918;2023-03-23T17:40:24;7.65;;;3.05;;
13801;SDS011;6972;51.518;6.918;2023-03-23T17:42:50;8.63;;;2.65;;
13801;SDS011;6972;51.518;6.918;2023-03-23T17:45:16;9.15;;;2.65;;
13801;SDS011;6972;51.518;6.918;2023-03-23T17:47:42;6.65;;;3.00;;
13801;SDS011;6972;51.518;6.918;2023-03-23T17:50:08;6.82;;;2.58;;
13801;SDS011;6972;51.518;6.918;2023-03-23T17:52:34;7.70;;;2.70;;
13801;SDS011;6972;51.518;6.918;2023-03-23T17:55:00;9.32;;;2.90;;
13801;SDS011;6972;51.518;6.918;2023-03-23T17:57:26;7.07;;;2.75;;
13801;SDS011;6972;51.518;6.918;2023-03-23T17:59:52;7.60;;;2.70;;
13801;SDS011;6972;51.518;6.918;2023-03-23T18:02:18;5.57;;;2.50;;
13801;SDS011;6972;51.518;6.918;2023-03-23T18:04:45;7.50;;;2.67;;
13801;SDS011;6972;51.518;6.918;2023-03-23T18:07:11;9.77;;;3.30;;
13801;SDS011;6972;51.518;6.918;2023-03-23T18:09:37;10.63;;;2.83;;
13801;SDS011;6972;51.518;6.918;2023-03-23T18:12:03;7.43;;;3.30;;
13801;SDS011;6972;51.518;6.918;2023-03-23T18:14:29;11.88;;;3.17;;
13801;SDS011;6972;51.518;6.918;2023-03-23T18:16:55;8.25;;;2.80;;
13801;SDS011;6972;51.518;6.918;2023-03-23T18:19:21;10.35;;;2.70;;
13801;SDS011;6972;51.518;6.918;2023-03-23T18:21:46;8.23;;;2.85;;
13801;SDS011;6972;51.518;6.918;2023-03-23T18:24:12;8.73;;;2.80;;
13801;SDS011;6972;51.518;6.918;2023-03-23T18:26:42;7.70;;;2.80;;
13801;SDS011;6972;51.518;6.918;2023-03-23T18:29:07;5.18;;;2.30;;
13801;SDS011;6972;51.518;6.918;2023-03-23T18:31:33;7.32;;;2.72;;
13801;SDS011;6972;51.518;6.918;2023-03-23T18:34:03;11.05;;;2.88;;
13801;SDS011;6972;51.518;6.918;2023-03-23T18:36:29;4.75;;;2.60;;
13801;SDS011;6972;51.518;6.918;2023-03-23T18:38:55;17.42;;;2.97;;
13801;SDS011;6972;51.518;6.918;2023-03-23T18:41:22;7.80;;;2.85;;
13801;SDS011;6972;51.518;6.918;2023-03-23T18:43:48;11.48;;;2.60;;
13801;SDS011;6972;51.518;6.918;2023-03-23T18:46:14;10.57;;;2.80;;
13801;SDS011;6972;51.518;6.918;2023-03-23T18:48:40;5.70;;;2.40;;
13801;SDS011;6972;51.518;6.918;2023-03-23T18:51:06;7.80;;;2.60;;
13801;SDS011;6972;51.518;6.918;2023-03-23T18:53:33;12.27;;;2.70;;
13801;SDS011;6972;51.518;6.918;2023-03-23T18:56:02;6.53;;;2.50;;
13801;SDS011;6972;51.518;6.918;2023-03-23T18:58:34;6.43;;;2.88;;
13801;SDS011;6972;51.518;6.918;2023-03-23T19:01:04;9.82;;;2.90;;
13801;SDS011;6972;51.518;6.918;2023-03-23T19:03:31;7.95;;;2.50;;
13801;SDS011;6972;51.518;6.918;2023-03-23T19:06:01;8.27;;;2.25;;
13801;SDS011;6972;51.518;6.918;2023-03-23T19:08:28;8.68;;;2.90;;
13801;SDS011;6972;51.518;6.918;2023-03-23T19:10:55;9.63;;;2.30;;
13801;SDS011;6972;51.518;6.918;2023-03-23T19:13:23;7.32;;;2.72;;
13801;SDS011;6972;51.518;6.918;2023-03-23T19:15:52;6.35;;;2.55;;
13801;SDS011;6972;51.518;6.918;2023-03-23T19:18:18;4.85;;;2.42;;
13801;SDS011;6972;51.518;6.918;2023-03-23T19:20:44;8.20;;;2.47;;
13801;SDS011;6972;51.518;6.918;2023-03-23T19:23:11;7.75;;;2.30;;
13801;SDS011;6972;51.518;6.918;2023-03-23T19:25:36;11.57;;;2.90;;
13801;SDS011;6972;51.518;6.918;2023-03-23T19:28:02;6.82;;;2.33;;
13801;SDS011;6972;51.518;6.918;2023-03-23T19:30:28;10.05;;;2.55;;
13801;SDS011;6972;51.518;6.918;2023-03-23T19:32:54;10.95;;;2.70;;
13801;SDS011;6972;51.518;6.918;2023-03-23T19:35:20;8.65;;;2.63;;
13801;SDS011;6972;51.518;6.918;2023-03-23T19:37:46;6.90;;;2.72;;
13801;SDS011;6972;51.518;6.918;2023-03-23T19:40:13;8.77;;;2.45;;
13801;SDS011;6972;51.518;6.918;2023-03-23T19:42:39;11.07;;;2.55;;
13801;SDS011;6972;51.518;6.918;2023-03-23T19:45:06;7.50;;;2.60;;
13801;SDS011;6972;51.518;6.918;2023-03-23T19:47:33;8.77;;;2.63;;
13801;SDS011;6972;51.518;6.918;2023-03-23T19:49:59;5.43;;;2.63;;
13801;SDS011;6972;51.518;6.918;2023-03-23T19:52:27;7.82;;;2.80;;
13801;SDS011;6972;51.518;6.918;2023-03-23T19:54:53;8.52;;;2.53;;
13801;SDS011;6972;51.518;6.918;2023-03-23T19:57:19;8.02;;;2.45;;
13801;SDS011;6972;51.518;6.918;2023-03-23T19:59:46;2.70;;;1.90;;
13801;SDS011;6972;51.518;6.918;2023-03-23T20:02:12;7.07;;;2.50;;
13801;SDS011;6972;51.518;6.918;2023-03-23T20:04:41;8.32;;;2.40;;
13801;SDS011;6972;51.518;6.918;2023-03-23T20:07:07;7.57;;;2.15;;
13801;SDS011;6972;51.518;6.918;2023-03-23T20:09:33;8.98;;;2.50;;